Athlestan, Iowa
Current Conditions -  °F | °C
As of 10:35 PM on Wednesday 22 Oct 2014 (Local Time) from KCSQ Reporting Station
Broken Clouds Broken Clouds  
Wind Chill: 57°   Ceiling: 8500
Heat Index: 57°   Visibility: 10mi
Dew Point: 48°   Wind: 13mph
Humidity: 72%   Direction: 150°SSE
Pressure: 30.1"   Gusts: 18mph
Location:  40.6485°N, 94.5286°W
Report Text: KCSQ 230335Z AUTO 15011G16KT 10SM BKN085 14/09 A3010 RMK AO2
Loading
Personal Weather Stations






























Interactive Weather Map
Tropical Storm Tracking
New forecast layout! Learn more

10-Day Weather Forecast

Advertisements
Track Severe Weather on mobile